sensor_id;sensor_type;location;lat;lon;timestamp;temperature;humidity
10095;DHT22;5086;50.830;7.102;2023-05-07T00:01:15;14.60;99.90
10095;DHT22;5086;50.830;7.102;2023-05-07T00:03:42;14.60;99.90
10095;DHT22;5086;50.830;7.102;2023-05-07T00:06:09;14.70;99.90
10095;DHT22;5086;50.830;7.102;2023-05-07T00:08:38;14.60;99.90
10095;DHT22;5086;50.830;7.102;2023-05-07T00:11:05;14.60;99.90
10095;DHT22;5086;50.830;7.102;2023-05-07T00:13:32;14.60;99.90
10095;DHT22;5086;50.830;7.102;2023-05-07T00:16:02;14.60;99.90
10095;DHT22;5086;50.830;7.102;2023-05-07T00:18:29;14.60;99.90
10095;DHT22;5086;50.830;7.102;2023-05-07T00:20:56;14.60;99.90
10095;DHT22;5086;50.830;7.102;2023-05-07T00:23:23;14.60;99.90
10095;DHT22;5086;50.830;7.102;2023-05-07T00:25:50;14.60;99.90
10095;DHT22;5086;50.830;7.102;2023-05-07T00:28:17;14.60;99.90
10095;DHT22;5086;50.830;7.102;2023-05-07T00:30:43;14.60;99.90
10095;DHT22;5086;50.830;7.102;2023-05-07T00:33:12;14.60;99.90
10095;DHT22;5086;50.830;7.102;2023-05-07T00:35:38;14.50;99.90
10095;DHT22;5086;50.830;7.102;2023-05-07T00:38:05;14.60;99.90
10095;DHT22;5086;50.830;7.102;2023-05-07T00:40:32;14.60;99.90
10095;DHT22;5086;50.830;7.102;2023-05-07T00:42:59;14.50;99.90
10095;DHT22;5086;50.830;7.102;2023-05-07T00:45:27;14.40;99.90
10095;DHT22;5086;50.830;7.102;2023-05-07T00:47:54;14.50;99.90
10095;DHT22;5086;50.830;7.102;2023-05-07T00:50:23;14.40;99.90
10095;DHT22;5086;50.830;7.102;2023-05-07T00:52:50;14.40;99.90
10095;DHT22;5086;50.830;7.102;2023-05-07T00:55:17;14.50;99.90
10095;DHT22;5086;50.830;7.102;2023-05-07T00:57:44;14.40;99.90
10095;DHT22;5086;50.830;7.102;2023-05-07T01:00:12;14.30;99.90
10095;DHT22;5086;50.830;7.102;2023-05-07T01:02:39;14.30;99.90
10095;DHT22;5086;50.830;7.102;2023-05-07T01:05:09;14.30;99.90
10095;DHT22;5086;50.830;7.102;2023-05-07T01:07:39;14.20;99.90
10095;DHT22;5086;50.830;7.102;2023-05-07T01:10:07;14.30;99.90
10095;DHT22;5086;50.830;7.102;2023-05-07T01:12:37;14.30;99.90
10095;DHT22;5086;50.830;7.102;2023-05-07T01:15:06;14.30;99.90
10095;DHT22;5086;50.830;7.102;2023-05-07T01:17:34;14.40;99.90
10095;DHT22;5086;50.830;7.102;2023-05-07T01:20:02;14.40;99.90
10095;DHT22;5086;50.830;7.102;2023-05-07T01:22:32;14.40;99.90
10095;DHT22;5086;50.830;7.102;2023-05-07T01:25:00;14.40;99.90
10095;DHT22;5086;50.830;7.102;2023-05-07T01:27:27;14.40;99.90
10095;DHT22;5086;50.830;7.102;2023-05-07T01:29:54;14.40;99.90
10095;DHT22;5086;50.830;7.102;2023-05-07T01:32:25;14.40;99.90
10095;DHT22;5086;50.830;7.102;2023-05-07T01:34:54;14.30;99.90
10095;DHT22;5086;50.830;7.102;2023-05-07T01:37:22;14.30;99.90
10095;DHT22;5086;50.830;7.102;2023-05-07T01:39:51;14.30;99.90
10095;DHT22;5086;50.830;7.102;2023-05-07T01:42:19;14.30;99.90
10095;DHT22;5086;50.830;7.102;2023-05-07T01:44:46;14.40;99.90
10095;DHT22;5086;50.830;7.102;2023-05-07T01:47:13;14.40;99.90
10095;DHT22;5086;50.830;7.102;2023-05-07T01:49:42;14.40;99.90
10095;DHT22;5086;50.830;7.102;2023-05-07T01:52:10;14.40;99.90
10095;DHT22;5086;50.830;7.102;2023-05-07T01:54:40;14.40;99.90
10095;DHT22;5086;50.830;7.102;2023-05-07T01:57:09;14.50;99.90
10095;DHT22;5086;50.830;7.102;2023-05-07T01:59:36;14.40;99.90
10095;DHT22;5086;50.830;7.102;2023-05-07T02:02:03;14.40;99.90
10095;DHT22;5086;50.830;7.102;2023-05-07T02:04:30;14.30;99.90
10095;DHT22;5086;50.830;7.102;2023-05-07T02:06:56;14.30;99.90
10095;DHT22;5086;50.830;7.102;2023-05-07T02:09:23;14.30;99.90
10095;DHT22;5086;50.830;7.102;2023-05-07T02:11:50;14.20;99.90
10095;DHT22;5086;50.830;7.102;2023-05-07T02:14:18;14.30;99.90
10095;DHT22;5086;50.830;7.102;2023-05-07T02:16:46;14.30;99.90
10095;DHT22;5086;50.830;7.102;2023-05-07T02:19:16;14.30;99.90
10095;DHT22;5086;50.830;7.102;2023-05-07T02:21:43;14.30;99.90
10095;DHT22;5086;50.830;7.102;2023-05-07T02:24:15;14.40;99.90
10095;DHT22;5086;50.830;7.102;2023-05-07T02:26:42;14.40;99.90
10095;DHT22;5086;50.830;7.102;2023-05-07T02:29:08;14.40;99.90
10095;DHT22;5086;50.830;7.102;2023-05-07T02:31:37;14.40;99.90
10095;DHT22;5086;50.830;7.102;2023-05-07T02:34:03;14.30;99.90
10095;DHT22;5086;50.830;7.102;2023-05-07T02:36:30;14.30;99.90
10095;DHT22;5086;50.830;7.102;2023-05-07T02:38:57;14.30;99.90
10095;DHT22;5086;50.830;7.102;2023-05-07T02:41:24;14.30;99.90
10095;DHT22;5086;50.830;7.102;2023-05-07T02:43:51;14.30;99.90
10095;DHT22;5086;50.830;7.102;2023-05-07T02:46:18;14.30;99.90
10095;DHT22;5086;50.830;7.102;2023-05-07T02:48:46;14.30;99.90
10095;DHT22;5086;50.830;7.102;2023-05-07T02:51:13;14.30;99.90
10095;DHT22;5086;50.830;7.102;2023-05-07T02:53:43;14.30;99.90
10095;DHT22;5086;50.830;7.102;2023-05-07T02:56:09;14.30;99.90
10095;DHT22;5086;50.830;7.102;2023-05-07T02:58:36;14.30;99.90
10095;DHT22;5086;50.830;7.102;2023-05-07T03:01:04;14.30;99.90
10095;DHT22;5086;50.830;7.102;2023-05-07T03:03:31;14.30;99.90
10095;DHT22;5086;50.830;7.102;2023-05-07T03:06:00;14.20;99.90
10095;DHT22;5086;50.830;7.102;2023-05-07T03:08:27;14.20;99.90
10095;DHT22;5086;50.830;7.102;2023-05-07T03:10:54;14.10;99.90
10095;DHT22;5086;50.830;7.102;2023-05-07T03:13:21;14.10;99.90
10095;DHT22;5086;50.830;7.102;2023-05-07T03:15:48;14.10;99.90
10095;DHT22;5086;50.830;7.102;2023-05-07T03:18:15;14.10;99.90
10095;DHT22;5086;50.830;7.102;2023-05-07T03:20:41;14.10;99.90
10095;DHT22;5086;50.830;7.102;2023-05-07T03:23:10;14.10;99.90
10095;DHT22;5086;50.830;7.102;2023-05-07T03:25:37;14.10;99.90
10095;DHT22;5086;50.830;7.102;2023-05-07T03:28:04;14.10;99.90
10095;DHT22;5086;50.830;7.102;2023-05-07T03:30:31;14.10;99.90
10095;DHT22;5086;50.830;7.102;2023-05-07T03:32:57;14.10;99.90
10095;DHT22;5086;50.830;7.102;2023-05-07T03:35:24;14.10;99.90
10095;DHT22;5086;50.830;7.102;2023-05-07T03:37:51;14.10;99.90
10095;DHT22;5086;50.830;7.102;2023-05-07T03:40:20;14.10;99.90
10095;DHT22;5086;50.830;7.102;2023-05-07T03:42:46;14.10;99.90
10095;DHT22;5086;50.830;7.102;2023-05-07T03:45:13;14.10;99.90
10095;DHT22;5086;50.830;7.102;2023-05-07T03:47:41;14.10;99.90
10095;DHT22;5086;50.830;7.102;2023-05-07T03:50:10;14.10;99.90
10095;DHT22;5086;50.830;7.102;2023-05-07T03:52:37;14.00;99.90
10095;DHT22;5086;50.830;7.102;2023-05-07T03:55:05;14.00;99.90
10095;DHT22;5086;50.830;7.102;2023-05-07T03:57:34;13.90;99.90
10095;DHT22;5086;50.830;7.102;2023-05-07T04:00:01;13.80;99.90
10095;DHT22;5086;50.830;7.102;2023-05-07T04:02:29;13.90;99.90
10095;DHT22;5086;50.830;7.102;2023-05-07T04:04:55;13.90;99.90
10095;DHT22;5086;50.830;7.102;2023-05-07T04:07:23;13.90;99.90
10095;DHT22;5086;50.830;7.102;2023-05-07T04:09:49;14.00;99.90
10095;DHT22;5086;50.830;7.102;2023-05-07T04:12:16;14.00;99.90
10095;DHT22;5086;50.830;7.102;2023-05-07T04:14:44;14.00;99.90
10095;DHT22;5086;50.830;7.102;2023-05-07T04:17:11;14.00;99.90
10095;DHT22;5086;50.830;7.102;2023-05-07T04:19:38;14.00;99.90
10095;DHT22;5086;50.830;7.102;2023-05-07T04:22:10;13.90;99.90
10095;DHT22;5086;50.830;7.102;2023-05-07T04:24:37;13.90;99.90
10095;DHT22;5086;50.830;7.102;2023-05-07T04:27:04;14.00;99.90
10095;DHT22;5086;50.830;7.102;2023-05-07T04:29:31;14.00;99.90
10095;DHT22;5086;50.830;7.102;2023-05-07T04:32:00;14.10;99.90
10095;DHT22;5086;50.830;7.102;2023-05-07T04:34:26;14.10;99.90
10095;DHT22;5086;50.830;7.102;2023-05-07T04:36:54;14.10;99.90
10095;DHT22;5086;50.830;7.102;2023-05-07T04:39:20;14.20;99.90
10095;DHT22;5086;50.830;7.102;2023-05-07T04:41:47;14.20;99.90
10095;DHT22;5086;50.830;7.102;2023-05-07T04:44:14;14.20;99.90
10095;DHT22;5086;50.830;7.102;2023-05-07T04:46:42;14.30;99.90
10095;DHT22;5086;50.830;7.102;2023-05-07T04:49:10;14.30;99.90
10095;DHT22;5086;50.830;7.102;2023-05-07T04:51:37;14.30;99.90
10095;DHT22;5086;50.830;7.102;2023-05-07T04:54:08;14.30;99.90
10095;DHT22;5086;50.830;7.102;2023-05-07T04:56:34;14.40;99.90
10095;DHT22;5086;50.830;7.102;2023-05-07T04:59:02;14.30;99.90
10095;DHT22;5086;50.830;7.102;2023-05-07T05:01:29;14.40;99.90
10095;DHT22;5086;50.830;7.102;2023-05-07T05:03:55;14.40;99.90
10095;DHT22;5086;50.830;7.102;2023-05-07T05:06:24;14.50;99.90
10095;DHT22;5086;50.830;7.102;2023-05-07T05:08:51;14.50;99.90
10095;DHT22;5086;50.830;7.102;2023-05-07T05:11:17;14.50;99.90
10095;DHT22;5086;50.830;7.102;2023-05-07T05:13:44;14.50;99.90
10095;DHT22;5086;50.830;7.102;2023-05-07T05:16:16;14.60;99.90
10095;DHT22;5086;50.830;7.102;2023-05-07T05:18:43;14.60;99.90
10095;DHT22;5086;50.830;7.102;2023-05-07T05:21:10;14.70;99.90
10095;DHT22;5086;50.830;7.102;2023-05-07T05:23:38;14.80;99.90
10095;DHT22;5086;50.830;7.102;2023-05-07T05:26:05;14.90;99.90
10095;DHT22;5086;50.830;7.102;2023-05-07T05:28:36;15.20;99.90
10095;DHT22;5086;50.830;7.102;2023-05-07T05:31:04;15.50;99.90
10095;DHT22;5086;50.830;7.102;2023-05-07T05:33:31;15.80;99.90
10095;DHT22;5086;50.830;7.102;2023-05-07T05:35:58;16.10;99.90
10095;DHT22;5086;50.830;7.102;2023-05-07T05:38:25;16.20;99.90
10095;DHT22;5086;50.830;7.102;2023-05-07T05:40:54;16.20;99.90
10095;DHT22;5086;50.830;7.102;2023-05-07T05:45:51;16.20;99.90
10095;DHT22;5086;50.830;7.102;2023-05-07T05:48:35;16.20;99.90
10095;DHT22;5086;50.830;7.102;2023-05-07T05:51:02;16.10;99.90
10095;DHT22;5086;50.830;7.102;2023-05-07T05:53:29;16.10;99.90
10095;DHT22;5086;50.830;7.102;2023-05-07T05:55:58;16.00;99.90
10095;DHT22;5086;50.830;7.102;2023-05-07T05:58:25;16.00;99.90
10095;DHT22;5086;50.830;7.102;2023-05-07T06:00:52;15.90;99.90
10095;DHT22;5086;50.830;7.102;2023-05-07T06:03:19;16.00;99.90
10095;DHT22;5086;50.830;7.102;2023-05-07T06:05:46;16.00;99.90
10095;DHT22;5086;50.830;7.102;2023-05-07T06:08:13;16.00;99.90
10095;DHT22;5086;50.830;7.102;2023-05-07T06:10:40;16.00;99.90
10095;DHT22;5086;50.830;7.102;2023-05-07T06:13:08;16.00;99.90
10095;DHT22;5086;50.830;7.102;2023-05-07T06:15:35;16.10;99.90
10095;DHT22;5086;50.830;7.102;2023-05-07T06:18:02;16.10;99.90
10095;DHT22;5086;50.830;7.102;2023-05-07T06:20:28;16.20;99.90
10095;DHT22;5086;50.830;7.102;2023-05-07T06:22:55;16.20;99.90
10095;DHT22;5086;50.830;7.102;2023-05-07T06:25:22;16.20;99.90
10095;DHT22;5086;50.830;7.102;2023-05-07T06:27:52;16.30;99.90
10095;DHT22;5086;50.830;7.102;2023-05-07T06:30:22;16.40;99.90
10095;DHT22;5086;50.830;7.102;2023-05-07T06:32:49;16.50;99.90
10095;DHT22;5086;50.830;7.102;2023-05-07T06:35:15;16.60;99.90
10095;DHT22;5086;50.830;7.102;2023-05-07T06:37:42;16.70;99.90
10095;DHT22;5086;50.830;7.102;2023-05-07T06:40:10;16.70;99.90
10095;DHT22;5086;50.830;7.102;2023-05-07T06:42:39;16.80;99.90
10095;DHT22;5086;50.830;7.102;2023-05-07T06:45:07;16.80;99.90
10095;DHT22;5086;50.830;7.102;2023-05-07T06:47:36;16.90;99.90
10095;DHT22;5086;50.830;7.102;2023-05-07T06:50:03;16.90;99.90
10095;DHT22;5086;50.830;7.102;2023-05-07T06:52:30;16.90;99.90
10095;DHT22;5086;50.830;7.102;2023-05-07T06:54:57;17.10;99.90
10095;DHT22;5086;50.830;7.102;2023-05-07T06:57:24;17.20;99.90
10095;DHT22;5086;50.830;7.102;2023-05-07T06:59:51;17.20;99.90
10095;DHT22;5086;50.830;7.102;2023-05-07T07:02:18;17.30;99.90
10095;DHT22;5086;50.830;7.102;2023-05-07T07:04:53;17.60;99.90
10095;DHT22;5086;50.830;7.102;2023-05-07T07:07:20;17.70;99.90
10095;DHT22;5086;50.830;7.102;2023-05-07T07:09:47;17.70;99.90
10095;DHT22;5086;50.830;7.102;2023-05-07T07:12:13;17.80;99.90
10095;DHT22;5086;50.830;7.102;2023-05-07T07:14:40;17.70;99.90
10095;DHT22;5086;50.830;7.102;2023-05-07T07:17:07;17.90;99.90
10095;DHT22;5086;50.830;7.102;2023-05-07T07:19:35;18.10;99.90
10095;DHT22;5086;50.830;7.102;2023-05-07T07:22:03;18.40;99.90
10095;DHT22;5086;50.830;7.102;2023-05-07T07:24:30;18.80;99.90
10095;DHT22;5086;50.830;7.102;2023-05-07T07:26:57;19.20;99.90
10095;DHT22;5086;50.830;7.102;2023-05-07T07:29:29;19.40;99.90
10095;DHT22;5086;50.830;7.102;2023-05-07T07:31:56;19.50;99.90
10095;DHT22;5086;50.830;7.102;2023-05-07T07:34:23;19.40;99.90
10095;DHT22;5086;50.830;7.102;2023-05-07T07:36:50;19.40;99.90
10095;DHT22;5086;50.830;7.102;2023-05-07T07:39:18;19.40;99.90
10095;DHT22;5086;50.830;7.102;2023-05-07T07:41:45;19.30;99.90
10095;DHT22;5086;50.830;7.102;2023-05-07T07:44:12;19.30;99.90
10095;DHT22;5086;50.830;7.102;2023-05-07T07:46:39;19.40;99.90
10095;DHT22;5086;50.830;7.102;2023-05-07T07:49:06;19.60;99.90
10095;DHT22;5086;50.830;7.102;2023-05-07T07:51:33;19.60;99.90
10095;DHT22;5086;50.830;7.102;2023-05-07T07:54:00;19.70;99.90
10095;DHT22;5086;50.830;7.102;2023-05-07T07:56:29;20.00;99.90
10095;DHT22;5086;50.830;7.102;2023-05-07T07:58:56;20.10;99.90
10095;DHT22;5086;50.830;7.102;2023-05-07T08:01:23;20.20;99.90
10095;DHT22;5086;50.830;7.102;2023-05-07T08:03:50;20.20;99.90
10095;DHT22;5086;50.830;7.102;2023-05-07T08:06:17;20.20;99.90
10095;DHT22;5086;50.830;7.102;2023-05-07T08:08:44;20.20;99.90
10095;DHT22;5086;50.830;7.102;2023-05-07T08:11:11;20.20;99.90
10095;DHT22;5086;50.830;7.102;2023-05-07T08:13:40;20.00;99.90
10095;DHT22;5086;50.830;7.102;2023-05-07T08:16:06;20.10;99.90
10095;DHT22;5086;50.830;7.102;2023-05-07T08:18:33;20.30;99.90
10095;DHT22;5086;50.830;7.102;2023-05-07T08:21:01;20.40;99.90
10095;DHT22;5086;50.830;7.102;2023-05-07T08:23:28;20.40;99.90
10095;DHT22;5086;50.830;7.102;2023-05-07T08:25:55;20.50;99.90
10095;DHT22;5086;50.830;7.102;2023-05-07T08:28:22;20.40;99.90
10095;DHT22;5086;50.830;7.102;2023-05-07T08:30:51;20.40;99.90
10095;DHT22;5086;50.830;7.102;2023-05-07T08:33:18;20.30;99.90
10095;DHT22;5086;50.830;7.102;2023-05-07T08:35:45;20.30;99.90
10095;DHT22;5086;50.830;7.102;2023-05-07T08:38:12;20.30;99.90
10095;DHT22;5086;50.830;7.102;2023-05-07T08:40:39;20.50;99.90
10095;DHT22;5086;50.830;7.102;2023-05-07T08:43:07;20.50;99.90
10095;DHT22;5086;50.830;7.102;2023-05-07T08:45:34;20.60;99.90
10095;DHT22;5086;50.830;7.102;2023-05-07T08:48:12;20.80;99.90
10095;DHT22;5086;50.830;7.102;2023-05-07T08:50:42;21.00;99.90
10095;DHT22;5086;50.830;7.102;2023-05-07T08:53:09;21.00;99.90
10095;DHT22;5086;50.830;7.102;2023-05-07T08:55:36;21.40;99.90
10095;DHT22;5086;50.830;7.102;2023-05-07T08:58:03;21.40;99.90
10095;DHT22;5086;50.830;7.102;2023-05-07T09:00:30;21.60;99.90
10095;DHT22;5086;50.830;7.102;2023-05-07T09:02:57;21.70;99.90
10095;DHT22;5086;50.830;7.102;2023-05-07T09:05:25;21.90;99.90
10095;DHT22;5086;50.830;7.102;2023-05-07T09:07:52;21.80;99.90
10095;DHT22;5086;50.830;7.102;2023-05-07T09:10:21;21.80;99.90
10095;DHT22;5086;50.830;7.102;2023-05-07T09:12:48;21.50;99.90
10095;DHT22;5086;50.830;7.102;2023-05-07T09:15:15;21.50;99.90
10095;DHT22;5086;50.830;7.102;2023-05-07T09:17:43;21.70;99.90
10095;DHT22;5086;50.830;7.102;2023-05-07T09:20:11;21.70;99.90
10095;DHT22;5086;50.830;7.102;2023-05-07T09:23:11;22.00;99.90
10095;DHT22;5086;50.830;7.102;2023-05-07T09:25:41;22.40;99.90
10095;DHT22;5086;50.830;7.102;2023-05-07T09:28:11;22.20;99.90
10095;DHT22;5086;50.830;7.102;2023-05-07T09:30:40;21.60;99.90
10095;DHT22;5086;50.830;7.102;2023-05-07T09:33:21;21.40;99.90
10095;DHT22;5086;50.830;7.102;2023-05-07T09:35:51;21.50;99.90
10095;DHT22;5086;50.830;7.102;2023-05-07T09:38:31;21.60;99.90
10095;DHT22;5086;50.830;7.102;2023-05-07T09:41:13;21.90;99.90
10095;DHT22;5086;50.830;7.102;2023-05-07T09:43:40;21.90;99.90
10095;DHT22;5086;50.830;7.102;2023-05-07T09:46:09;22.00;99.90
10095;DHT22;5086;50.830;7.102;2023-05-07T09:48:41;22.00;99.90
10095;DHT22;5086;50.830;7.102;2023-05-07T09:51:18;22.10;99.90
10095;DHT22;5086;50.830;7.102;2023-05-07T09:53:48;22.10;99.90
10095;DHT22;5086;50.830;7.102;2023-05-07T09:56:18;22.20;99.90
10095;DHT22;5086;50.830;7.102;2023-05-07T09:58:46;22.30;99.90
10095;DHT22;5086;50.830;7.102;2023-05-07T10:01:13;22.40;99.90
10095;DHT22;5086;50.830;7.102;2023-05-07T10:03:43;22.70;99.90
10095;DHT22;5086;50.830;7.102;2023-05-07T10:06:12;23.00;99.90
10095;DHT22;5086;50.830;7.102;2023-05-07T10:08:40;22.90;99.90
10095;DHT22;5086;50.830;7.102;2023-05-07T10:11:09;23.00;99.90
10095;DHT22;5086;50.830;7.102;2023-05-07T10:13:36;23.00;99.90
10095;DHT22;5086;50.830;7.102;2023-05-07T10:16:04;23.00;99.90
10095;DHT22;5086;50.830;7.102;2023-05-07T10:18:33;23.00;99.90
10095;DHT22;5086;50.830;7.102;2023-05-07T10:21:17;23.10;99.90
10095;DHT22;5086;50.830;7.102;2023-05-07T10:23:45;23.30;99.90
10095;DHT22;5086;50.830;7.102;2023-05-07T10:28:47;23.70;99.90
10095;DHT22;5086;50.830;7.102;2023-05-07T10:31:26;23.80;99.90
10095;DHT22;5086;50.830;7.102;2023-05-07T10:33:58;23.10;99.90
10095;DHT22;5086;50.830;7.102;2023-05-07T10:36:26;22.80;99.90
10095;DHT22;5086;50.830;7.102;2023-05-07T10:38:53;22.50;99.90
10095;DHT22;5086;50.830;7.102;2023-05-07T10:41:22;22.50;99.90
10095;DHT22;5086;50.830;7.102;2023-05-07T10:43:49;22.30;99.90
10095;DHT22;5086;50.830;7.102;2023-05-07T10:46:18;22.50;99.90
10095;DHT22;5086;50.830;7.102;2023-05-07T10:49:06;22.50;99.90
10095;DHT22;5086;50.830;7.102;2023-05-07T10:51:33;22.60;99.90
10095;DHT22;5086;50.830;7.102;2023-05-07T10:54:27;22.90;99.90
10095;DHT22;5086;50.830;7.102;2023-05-07T10:56:55;23.20;99.90
10095;DHT22;5086;50.830;7.102;2023-05-07T10:59:35;23.20;99.90
10095;DHT22;5086;50.830;7.102;2023-05-07T11:02:11;23.50;99.90
10095;DHT22;5086;50.830;7.102;2023-05-07T11:04:40;23.70;99.90
10095;DHT22;5086;50.830;7.102;2023-05-07T11:07:29;23.70;99.90
10095;DHT22;5086;50.830;7.102;2023-05-07T11:09:58;23.50;99.90
10095;DHT22;5086;50.830;7.102;2023-05-07T11:13:05;23.60;99.90
10095;DHT22;5086;50.830;7.102;2023-05-07T11:15:43;23.60;99.90
10095;DHT22;5086;50.830;7.102;2023-05-07T11:18:12;23.90;99.90
10095;DHT22;5086;50.830;7.102;2023-05-07T11:20:54;23.80;99.90
10095;DHT22;5086;50.830;7.102;2023-05-07T11:26:49;23.20;99.90
10095;DHT22;5086;50.830;7.102;2023-05-07T11:29:18;23.20;99.90
10095;DHT22;5086;50.830;7.102;2023-05-07T11:31:49;23.20;99.90
10095;DHT22;5086;50.830;7.102;2023-05-07T11:34:20;23.40;99.90
10095;DHT22;5086;50.830;7.102;2023-05-07T11:36:49;23.40;99.90
10095;DHT22;5086;50.830;7.102;2023-05-07T11:39:27;23.60;99.90
10095;DHT22;5086;50.830;7.102;2023-05-07T11:41:54;23.70;99.90
10095;DHT22;5086;50.830;7.102;2023-05-07T11:44:22;23.90;99.90
10095;DHT22;5086;50.830;7.102;2023-05-07T11:46:49;23.70;99.90
10095;DHT22;5086;50.830;7.102;2023-05-07T11:49:20;23.60;99.90
10095;DHT22;5086;50.830;7.102;2023-05-07T11:51:47;23.70;99.90
10095;DHT22;5086;50.830;7.102;2023-05-07T11:54:16;23.80;99.90
10095;DHT22;5086;50.830;7.102;2023-05-07T11:56:44;23.80;99.90
10095;DHT22;5086;50.830;7.102;2023-05-07T11:59:16;23.90;99.90
10095;DHT22;5086;50.830;7.102;2023-05-07T12:01:46;23.80;99.90
10095;DHT22;5086;50.830;7.102;2023-05-07T12:04:18;24.00;99.90
10095;DHT22;5086;50.830;7.102;2023-05-07T12:06:45;24.30;99.90
10095;DHT22;5086;50.830;7.102;2023-05-07T12:09:12;24.50;99.90
10095;DHT22;5086;50.830;7.102;2023-05-07T12:11:40;24.40;99.90
10095;DHT22;5086;50.830;7.102;2023-05-07T12:14:06;24.30;99.90
10095;DHT22;5086;50.830;7.102;2023-05-07T12:16:34;24.40;99.90
10095;DHT22;5086;50.830;7.102;2023-05-07T12:19:02;24.30;99.90
10095;DHT22;5086;50.830;7.102;2023-05-07T12:21:29;24.40;99.90
10095;DHT22;5086;50.830;7.102;2023-05-07T12:23:56;24.30;99.90
10095;DHT22;5086;50.830;7.102;2023-05-07T12:26:25;24.40;99.90
10095;DHT22;5086;50.830;7.102;2023-05-07T12:28:52;24.30;99.90
10095;DHT22;5086;50.830;7.102;2023-05-07T12:31:19;24.30;99.90
10095;DHT22;5086;50.830;7.102;2023-05-07T12:33:46;24.10;99.90
10095;DHT22;5086;50.830;7.102;2023-05-07T12:36:15;23.90;99.90
10095;DHT22;5086;50.830;7.102;2023-05-07T12:38:51;23.80;99.90
10095;DHT22;5086;50.830;7.102;2023-05-07T12:41:17;23.80;99.90
10095;DHT22;5086;50.830;7.102;2023-05-07T12:43:56;23.60;99.90
10095;DHT22;5086;50.830;7.102;2023-05-07T12:46:23;23.40;99.90
10095;DHT22;5086;50.830;7.102;2023-05-07T12:48:50;23.50;99.90
10095;DHT22;5086;50.830;7.102;2023-05-07T12:51:20;23.30;99.90
10095;DHT22;5086;50.830;7.102;2023-05-07T12:53:47;23.30;99.90
10095;DHT22;5086;50.830;7.102;2023-05-07T12:56:17;23.20;99.90
10095;DHT22;5086;50.830;7.102;2023-05-07T12:58:44;23.10;99.90
10095;DHT22;5086;50.830;7.102;2023-05-07T13:01:11;23.00;99.90
10095;DHT22;5086;50.830;7.102;2023-05-07T13:03:40;22.90;99.90
10095;DHT22;5086;50.830;7.102;2023-05-07T13:06:09;22.60;99.90
10095;DHT22;5086;50.830;7.102;2023-05-07T13:08:41;22.50;99.90
10095;DHT22;5086;50.830;7.102;2023-05-07T13:11:12;22.50;99.90
10095;DHT22;5086;50.830;7.102;2023-05-07T13:13:46;22.50;99.90
10095;DHT22;5086;50.830;7.102;2023-05-07T13:16:22;22.50;99.90
10095;DHT22;5086;50.830;7.102;2023-05-07T13:18:49;22.60;99.90
10095;DHT22;5086;50.830;7.102;2023-05-07T13:21:17;22.60;99.90
10095;DHT22;5086;50.830;7.102;2023-05-07T13:23:46;22.80;99.90
10095;DHT22;5086;50.830;7.102;2023-05-07T13:26:13;22.80;99.90
10095;DHT22;5086;50.830;7.102;2023-05-07T13:28:41;22.80;99.90
10095;DHT22;5086;50.830;7.102;2023-05-07T13:31:08;22.80;99.90
10095;DHT22;5086;50.830;7.102;2023-05-07T13:33:36;22.90;99.90
10095;DHT22;5086;50.830;7.102;2023-05-07T13:36:04;23.00;99.90
10095;DHT22;5086;50.830;7.102;2023-05-07T13:38:31;23.10;99.90
10095;DHT22;5086;50.830;7.102;2023-05-07T13:41:05;23.00;99.90
10095;DHT22;5086;50.830;7.102;2023-05-07T13:43:32;22.90;99.90
10095;DHT22;5086;50.830;7.102;2023-05-07T13:45:59;22.90;99.90
10095;DHT22;5086;50.830;7.102;2023-05-07T13:48:27;23.00;99.90
10095;DHT22;5086;50.830;7.102;2023-05-07T13:50:54;23.10;99.90
10095;DHT22;5086;50.830;7.102;2023-05-07T13:53:21;22.90;99.90
10095;DHT22;5086;50.830;7.102;2023-05-07T13:55:47;22.80;99.90
10095;DHT22;5086;50.830;7.102;2023-05-07T13:58:16;22.50;99.90
10095;DHT22;5086;50.830;7.102;2023-05-07T14:00:42;22.60;99.90
10095;DHT22;5086;50.830;7.102;2023-05-07T14:03:09;22.60;99.90
10095;DHT22;5086;50.830;7.102;2023-05-07T14:05:36;22.60;99.90
10095;DHT22;5086;50.830;7.102;2023-05-07T14:08:03;22.40;99.90
10095;DHT22;5086;50.830;7.102;2023-05-07T14:10:30;22.40;99.90
10095;DHT22;5086;50.830;7.102;2023-05-07T14:12:59;22.40;99.90
10095;DHT22;5086;50.830;7.102;2023-05-07T14:15:28;22.50;99.90
10095;DHT22;5086;50.830;7.102;2023-05-07T14:17:55;22.40;99.90
10095;DHT22;5086;50.830;7.102;2023-05-07T14:20:23;22.40;99.90
10095;DHT22;5086;50.830;7.102;2023-05-07T14:22:49;22.40;99.90
10095;DHT22;5086;50.830;7.102;2023-05-07T14:25:17;22.50;99.90
10095;DHT22;5086;50.830;7.102;2023-05-07T14:27:44;22.50;99.90
10095;DHT22;5086;50.830;7.102;2023-05-07T14:30:12;22.50;99.90
10095;DHT22;5086;50.830;7.102;2023-05-07T14:32:40;22.60;99.90
10095;DHT22;5086;50.830;7.102;2023-05-07T14:35:08;22.30;99.90
10095;DHT22;5086;50.830;7.102;2023-05-07T14:37:34;22.30;99.90
10095;DHT22;5086;50.830;7.102;2023-05-07T14:40:02;22.20;99.90
10095;DHT22;5086;50.830;7.102;2023-05-07T14:42:29;22.10;99.90
10095;DHT22;5086;50.830;7.102;2023-05-07T14:44:55;22.00;99.90
10095;DHT22;5086;50.830;7.102;2023-05-07T14:47:22;21.90;99.90
10095;DHT22;5086;50.830;7.102;2023-05-07T14:49:51;21.60;99.90
10095;DHT22;5086;50.830;7.102;2023-05-07T14:52:18;21.40;99.90
10095;DHT22;5086;50.830;7.102;2023-05-07T14:54:45;21.30;99.90
10095;DHT22;5086;50.830;7.102;2023-05-07T14:57:13;21.20;99.90
10095;DHT22;5086;50.830;7.102;2023-05-07T14:59:42;21.10;99.90
10095;DHT22;5086;50.830;7.102;2023-05-07T15:02:10;21.10;99.90
10095;DHT22;5086;50.830;7.102;2023-05-07T15:04:37;20.90;99.90
10095;DHT22;5086;50.830;7.102;2023-05-07T15:07:07;20.70;99.90
10095;DHT22;5086;50.830;7.102;2023-05-07T15:09:34;20.70;99.90
10095;DHT22;5086;50.830;7.102;2023-05-07T15:12:01;20.50;99.90
10095;DHT22;5086;50.830;7.102;2023-05-07T15:14:29;20.60;99.90
10095;DHT22;5086;50.830;7.102;2023-05-07T15:16:56;20.50;99.90
10095;DHT22;5086;50.830;7.102;2023-05-07T15:19:23;20.60;99.90
10095;DHT22;5086;50.830;7.102;2023-05-07T15:21:54;20.50;99.90
10095;DHT22;5086;50.830;7.102;2023-05-07T15:24:23;20.40;99.90
10095;DHT22;5086;50.830;7.102;2023-05-07T15:26:51;20.50;99.90
10095;DHT22;5086;50.830;7.102;2023-05-07T15:29:18;20.40;99.90
10095;DHT22;5086;50.830;7.102;2023-05-07T15:31:45;20.30;99.90
10095;DHT22;5086;50.830;7.102;2023-05-07T15:34:12;20.20;99.90
10095;DHT22;5086;50.830;7.102;2023-05-07T15:36:40;20.10;99.90
10095;DHT22;5086;50.830;7.102;2023-05-07T15:39:07;20.00;99.90
10095;DHT22;5086;50.830;7.102;2023-05-07T15:41:35;20.00;99.90
10095;DHT22;5086;50.830;7.102;2023-05-07T15:44:03;20.10;99.90
10095;DHT22;5086;50.830;7.102;2023-05-07T15:46:30;20.10;99.90
10095;DHT22;5086;50.830;7.102;2023-05-07T15:48:59;20.10;99.90
10095;DHT22;5086;50.830;7.102;2023-05-07T15:51:27;20.20;99.90
10095;DHT22;5086;50.830;7.102;2023-05-07T15:53:56;20.20;99.90
10095;DHT22;5086;50.830;7.102;2023-05-07T15:56:23;20.30;99.90
10095;DHT22;5086;50.830;7.102;2023-05-07T15:58:52;20.30;99.90
10095;DHT22;5086;50.830;7.102;2023-05-07T16:01:19;20.50;99.90